sensor_id;sensor_type;location;lat;lon;timestamp;pressure;altitude;pressure_sealevel;temperature;humidity
70902;BME280;58548;47.210;8.618;2023-06-22T00:00:09;94136.50;;;28.46;38.50
70902;BME280;58548;47.210;8.618;2023-06-22T00:02:42;94101.81;;;28.07;38.97
70902;BME280;58548;47.210;8.618;2023-06-22T00:05:10;93949.44;;;27.12;39.09
70902;BME280;58548;47.210;8.618;2023-06-22T00:07:41;94043.59;;;27.66;38.46
70902;BME280;58548;47.210;8.618;2023-06-22T00:10:07;94136.84;;;28.16;38.96
70902;BME280;58548;47.210;8.618;2023-06-22T00:12:33;94135.25;;;28.15;38.60
70902;BME280;58548;47.210;8.618;2023-06-22T00:14:59;94099.06;;;27.84;38.77
70902;BME280;58548;47.210;8.618;2023-06-22T00:17:25;94044.50;;;27.47;38.91
70902;BME280;58548;47.210;8.618;2023-06-22T00:19:50;94139.41;;;28.07;38.90
70902;BME280;58548;47.210;8.618;2023-06-22T00:22:21;94046.47;;;27.42;38.82
70902;BME280;58548;47.210;8.618;2023-06-22T00:24:56;94124.19;;;27.89;38.94
70902;BME280;58548;47.210;8.618;2023-06-22T00:27:25;94043.78;;;27.42;39.71
70902;BME280;58548;47.210;8.618;2023-06-22T00:29:50;94085.94;;;27.69;39.57
70902;BME280;58548;47.210;8.618;2023-06-22T00:32:17;94137.41;;;27.99;39.87
70902;BME280;58548;47.210;8.618;2023-06-22T00:34:44;94059.25;;;27.45;40.06
70902;BME280;58548;47.210;8.618;2023-06-22T00:37:10;94104.63;;;27.74;39.72
70902;BME280;58548;47.210;8.618;2023-06-22T00:39:36;94060.06;;;27.45;40.13
70902;BME280;58548;47.210;8.618;2023-06-22T00:42:05;94104.22;;;27.67;39.81
70902;BME280;58548;47.210;8.618;2023-06-22T00:44:33;94094.88;;;27.64;39.33
70902;BME280;58548;47.210;8.618;2023-06-22T00:47:04;94133.34;;;27.88;39.65
70902;BME280;58548;47.210;8.618;2023-06-22T00:49:32;94021.72;;;27.17;40.23
70902;BME280;58548;47.210;8.618;2023-06-22T00:52:02;94031.34;;;27.18;39.85
70902;BME280;58548;47.210;8.618;2023-06-22T00:54:28;94131.84;;;27.81;40.18
70902;BME280;58548;47.210;8.618;2023-06-22T00:56:54;94056.78;;;27.34;40.01
70902;BME280;58548;47.210;8.618;2023-06-22T00:59:23;94104.22;;;27.67;40.21
70902;BME280;58548;47.210;8.618;2023-06-22T01:01:51;94122.69;;;27.82;40.26
70902;BME280;58548;47.210;8.618;2023-06-22T01:04:21;94105.19;;;27.57;40.04
70902;BME280;58548;47.210;8.618;2023-06-22T01:07:12;94140.19;;;27.80;40.23
70902;BME280;58548;47.210;8.618;2023-06-22T01:10:16;94135.63;;;27.80;40.14
70902;BME280;58548;47.210;8.618;2023-06-22T01:13:04;94117.13;;;27.65;40.91
70902;BME280;58548;47.210;8.618;2023-06-22T01:15:44;94144.66;;;27.84;40.95
70902;BME280;58548;47.210;8.618;2023-06-22T01:18:17;94131.53;;;27.69;40.48
70902;BME280;58548;47.210;8.618;2023-06-22T01:20:44;94046.94;;;27.16;40.98
70902;BME280;58548;47.210;8.618;2023-06-22T01:31:10;94138.81;;;27.82;40.94
70902;BME280;58548;47.210;8.618;2023-06-22T01:33:42;94062.63;;;27.36;40.84
70902;BME280;58548;47.210;8.618;2023-06-22T01:36:09;94157.00;;;27.86;40.47
70902;BME280;58548;47.210;8.618;2023-06-22T01:38:38;94169.63;;;27.85;40.98
70902;BME280;58548;47.210;8.618;2023-06-22T01:41:06;94175.47;;;27.87;40.57
70902;BME280;58548;47.210;8.618;2023-06-22T01:43:36;94109.97;;;27.46;41.00
70902;BME280;58548;47.210;8.618;2023-06-22T01:46:07;94153.91;;;27.78;40.56
70902;BME280;58548;47.210;8.618;2023-06-22T01:48:36;94178.66;;;27.89;40.60
70902;BME280;58548;47.210;8.618;2023-06-22T01:51:03;94175.19;;;27.89;40.59
70902;BME280;58548;47.210;8.618;2023-06-22T01:53:29;94091.81;;;27.38;40.71
70902;BME280;58548;47.210;8.618;2023-06-22T01:55:55;94178.38;;;27.91;41.52
70902;BME280;58548;47.210;8.618;2023-06-22T01:58:26;94168.22;;;27.88;41.57
70902;BME280;58548;47.210;8.618;2023-06-22T02:01:09;94175.38;;;27.92;41.52
70902;BME280;58548;47.210;8.618;2023-06-22T02:03:58;94163.25;;;27.81;41.07
70902;BME280;58548;47.210;8.618;2023-06-22T02:06:37;94081.50;;;27.31;41.47
70902;BME280;58548;47.210;8.618;2023-06-22T02:09:16;94076.94;;;27.32;41.43
70902;BME280;58548;47.210;8.618;2023-06-22T02:11:47;94139.38;;;27.79;41.21
70902;BME280;58548;47.210;8.618;2023-06-22T02:14:14;94128.06;;;27.68;41.15
70902;BME280;58548;47.210;8.618;2023-06-22T02:16:46;94076.56;;;27.38;41.09
70902;BME280;58548;47.210;8.618;2023-06-22T02:19:14;94170.00;;;27.92;40.50
70902;BME280;58548;47.210;8.618;2023-06-22T02:21:46;94078.13;;;27.26;41.23
70902;BME280;58548;47.210;8.618;2023-06-22T02:24:12;94167.72;;;27.86;41.22
70902;BME280;58548;47.210;8.618;2023-06-22T02:26:42;94169.72;;;27.80;40.71
70902;BME280;58548;47.210;8.618;2023-06-22T02:29:12;94052.06;;;27.12;40.62
70902;BME280;58548;47.210;8.618;2023-06-22T02:31:38;94109.56;;;27.53;40.74
70902;BME280;58548;47.210;8.618;2023-06-22T02:34:07;94137.22;;;27.81;41.13
70902;BME280;58548;47.210;8.618;2023-06-22T02:36:33;94108.78;;;27.52;41.31
70902;BME280;58548;47.210;8.618;2023-06-22T02:38:59;94149.53;;;27.82;40.61
70902;BME280;58548;47.210;8.618;2023-06-22T02:41:29;94153.63;;;27.80;40.79
70902;BME280;58548;47.210;8.618;2023-06-22T02:43:57;94136.41;;;27.67;41.77
70902;BME280;58548;47.210;8.618;2023-06-22T02:46:26;94040.44;;;27.03;41.18
70902;BME280;58548;47.210;8.618;2023-06-22T02:48:59;94134.53;;;27.81;41.17
70902;BME280;58548;47.210;8.618;2023-06-22T02:51:29;93955.31;;;26.67;41.81
70902;BME280;58548;47.210;8.618;2023-06-22T02:54:00;94085.50;;;27.48;41.19
70902;BME280;58548;47.210;8.618;2023-06-22T02:56:28;94127.88;;;27.79;41.42
70902;BME280;58548;47.210;8.618;2023-06-22T02:58:54;94126.47;;;27.81;41.67
70902;BME280;58548;47.210;8.618;2023-06-22T03:01:19;94128.38;;;27.81;42.03
70902;BME280;58548;47.210;8.618;2023-06-22T03:03:49;94047.53;;;27.27;41.44
70902;BME280;58548;47.210;8.618;2023-06-22T03:06:15;94129.47;;;27.80;41.98
70902;BME280;58548;47.210;8.618;2023-06-22T03:08:43;94101.63;;;27.62;42.00
70902;BME280;58548;47.210;8.618;2023-06-22T03:11:09;94057.16;;;27.28;41.69
70902;BME280;58548;47.210;8.618;2023-06-22T03:13:40;94142.78;;;27.71;41.92
70902;BME280;58548;47.210;8.618;2023-06-22T03:16:10;94034.78;;;27.04;41.54
70902;BME280;58548;47.210;8.618;2023-06-22T03:18:36;94128.44;;;27.62;41.97
70902;BME280;58548;47.210;8.618;2023-06-22T03:21:04;94031.59;;;27.02;42.04
70902;BME280;58548;47.210;8.618;2023-06-22T03:23:32;94015.50;;;26.88;41.64
70902;BME280;58548;47.210;8.618;2023-06-22T03:25:58;94140.75;;;27.63;41.74
70902;BME280;58548;47.210;8.618;2023-06-22T03:28:24;94140.25;;;27.61;41.81
70902;BME280;58548;47.210;8.618;2023-06-22T03:30:50;94031.78;;;26.92;41.38
70902;BME280;58548;47.210;8.618;2023-06-22T03:33:18;94109.44;;;27.44;41.67
70902;BME280;58548;47.210;8.618;2023-06-22T03:35:46;94088.56;;;27.41;41.34
70902;BME280;58548;47.210;8.618;2023-06-22T03:38:13;94102.81;;;27.56;41.48
70902;BME280;58548;47.210;8.618;2023-06-22T03:40:39;94018.19;;;26.88;40.85
70902;BME280;58548;47.210;8.618;2023-06-22T03:43:07;94118.00;;;27.46;41.15
70902;BME280;58548;47.210;8.618;2023-06-22T03:45:33;93999.56;;;26.78;40.96
70902;BME280;58548;47.210;8.618;2023-06-22T03:48:00;94102.97;;;27.45;41.48
70902;BME280;58548;47.210;8.618;2023-06-22T03:50:26;94126.16;;;27.55;41.02
70902;BME280;58548;47.210;8.618;2023-06-22T03:52:54;94062.03;;;27.26;41.10
70902;BME280;58548;47.210;8.618;2023-06-22T03:55:27;94027.19;;;26.92;41.32
70902;BME280;58548;47.210;8.618;2023-06-22T03:57:54;94108.34;;;27.45;41.43
70902;BME280;58548;47.210;8.618;2023-06-22T04:00:27;94041.34;;;27.12;41.42
70902;BME280;58548;47.210;8.618;2023-06-22T04:02:53;94043.94;;;27.17;41.04
70902;BME280;58548;47.210;8.618;2023-06-22T04:05:24;94043.84;;;27.22;40.83
70902;BME280;58548;47.210;8.618;2023-06-22T04:07:52;94043.34;;;27.20;41.49
70902;BME280;58548;47.210;8.618;2023-06-22T04:10:18;94070.97;;;27.35;41.54
70902;BME280;58548;47.210;8.618;2023-06-22T04:12:44;93991.88;;;26.90;41.61
70902;BME280;58548;47.210;8.618;2023-06-22T04:15:12;94002.00;;;26.93;40.93
70902;BME280;58548;47.210;8.618;2023-06-22T04:17:40;94070.09;;;27.39;41.44
70902;BME280;58548;47.210;8.618;2023-06-22T04:20:11;93925.13;;;26.47;41.82
70902;BME280;58548;47.210;8.618;2023-06-22T04:22:37;93943.00;;;26.66;41.92
70902;BME280;58548;47.210;8.618;2023-06-22T04:25:05;94046.44;;;27.28;41.44
70902;BME280;58548;47.210;8.618;2023-06-22T04:27:31;94105.22;;;27.71;41.20
70902;BME280;58548;47.210;8.618;2023-06-22T04:29:59;94025.09;;;27.22;40.97
70902;BME280;58548;47.210;8.618;2023-06-22T04:32:26;94003.03;;;27.12;41.25
70902;BME280;58548;47.210;8.618;2023-06-22T04:34:51;94074.38;;;27.54;40.90
70902;BME280;58548;47.210;8.618;2023-06-22T04:37:20;94026.59;;;27.29;41.03
70902;BME280;58548;47.210;8.618;2023-06-22T04:39:49;93979.81;;;27.07;41.09
70902;BME280;58548;47.210;8.618;2023-06-22T04:42:15;94005.22;;;27.23;40.64
70902;BME280;58548;47.210;8.618;2023-06-22T04:44:41;93988.22;;;27.14;40.98
70902;BME280;58548;47.210;8.618;2023-06-22T04:47:09;94080.75;;;27.73;40.81
70902;BME280;58548;47.210;8.618;2023-06-22T04:49:36;93989.31;;;27.13;41.70
70902;BME280;58548;47.210;8.618;2023-06-22T04:52:07;93999.28;;;27.27;41.49
70902;BME280;58548;47.210;8.618;2023-06-22T04:54:35;94084.22;;;27.87;40.94
70902;BME280;58548;47.210;8.618;2023-06-22T04:57:06;94011.50;;;27.47;41.58
70902;BME280;58548;47.210;8.618;2023-06-22T04:59:38;93980.00;;;27.24;41.08
70902;BME280;58548;47.210;8.618;2023-06-22T05:02:10;94042.03;;;27.65;41.00
70902;BME280;58548;47.210;8.618;2023-06-22T05:04:38;94058.50;;;27.86;41.17
70902;BME280;58548;47.210;8.618;2023-06-22T05:07:06;94045.19;;;27.81;41.01
70902;BME280;58548;47.210;8.618;2023-06-22T05:09:35;93969.88;;;27.35;40.77
70902;BME280;58548;47.210;8.618;2023-06-22T05:12:03;93960.34;;;27.43;41.49
70902;BME280;58548;47.210;8.618;2023-06-22T05:14:32;94082.13;;;28.26;41.24
70902;BME280;58548;47.210;8.618;2023-06-22T05:17:00;94002.03;;;27.91;40.97
70902;BME280;58548;47.210;8.618;2023-06-22T05:19:31;94031.81;;;28.18;40.64
70902;BME280;58548;47.210;8.618;2023-06-22T05:22:02;93968.84;;;27.87;40.48
70902;BME280;58548;47.210;8.618;2023-06-22T05:24:28;94081.22;;;28.67;40.61
70902;BME280;58548;47.210;8.618;2023-06-22T05:26:58;94077.63;;;28.72;40.39
70902;BME280;58548;47.210;8.618;2023-06-22T05:29:27;94069.03;;;28.84;40.31
70902;BME280;58548;47.210;8.618;2023-06-22T05:31:57;93986.34;;;28.35;40.58
70902;BME280;58548;47.210;8.618;2023-06-22T05:34:30;94026.50;;;28.63;40.65
70902;BME280;58548;47.210;8.618;2023-06-22T05:36:59;93995.25;;;28.44;40.65
70902;BME280;58548;47.210;8.618;2023-06-22T05:39:28;94074.28;;;29.12;40.85
70902;BME280;58548;47.210;8.618;2023-06-22T05:41:54;94042.09;;;28.98;40.29
70902;BME280;58548;47.210;8.618;2023-06-22T05:44:24;94071.81;;;29.24;40.03
70902;BME280;58548;47.210;8.618;2023-06-22T05:46:52;93982.91;;;28.66;39.72
70902;BME280;58548;47.210;8.618;2023-06-22T05:49:23;94083.94;;;29.36;39.92
70902;BME280;58548;47.210;8.618;2023-06-22T05:51:55;94071.31;;;29.45;39.64
70902;BME280;58548;47.210;8.618;2023-06-22T05:54:27;93930.78;;;28.67;39.53
70902;BME280;58548;47.210;8.618;2023-06-22T05:56:56;94067.25;;;29.56;39.55
70902;BME280;58548;47.210;8.618;2023-06-22T05:59:26;94060.03;;;29.66;39.95
70902;BME280;58548;47.210;8.618;2023-06-22T06:01:57;94005.66;;;29.46;39.73
70902;BME280;58548;47.210;8.618;2023-06-22T06:04:25;94086.31;;;30.18;40.08
70902;BME280;58548;47.210;8.618;2023-06-22T06:06:54;94002.59;;;29.88;39.86
70902;BME280;58548;47.210;8.618;2023-06-22T06:09:20;94013.63;;;30.18;39.47
70902;BME280;58548;47.210;8.618;2023-06-22T06:11:48;93997.94;;;30.46;39.35
70902;BME280;58548;47.210;8.618;2023-06-22T06:14:14;94009.03;;;30.80;39.08
70902;BME280;58548;47.210;8.618;2023-06-22T06:16:39;94031.28;;;31.33;37.95
70902;BME280;58548;47.210;8.618;2023-06-22T06:19:08;94108.44;;;32.12;37.29
70902;BME280;58548;47.210;8.618;2023-06-22T06:21:36;93946.03;;;31.41;36.25
70902;BME280;58548;47.210;8.618;2023-06-22T06:24:02;94109.25;;;32.63;35.86
70902;BME280;58548;47.210;8.618;2023-06-22T06:26:28;94017.78;;;32.23;35.82
70902;BME280;58548;47.210;8.618;2023-06-22T06:29:02;94091.81;;;32.82;35.63
70902;BME280;58548;47.210;8.618;2023-06-22T06:31:28;94108.13;;;33.07;34.43
70902;BME280;58548;47.210;8.618;2023-06-22T06:33:54;94036.41;;;32.67;34.10
70902;BME280;58548;47.210;8.618;2023-06-22T06:36:23;94114.06;;;33.21;34.04
70902;BME280;58548;47.210;8.618;2023-06-22T06:38:48;94123.41;;;33.24;34.15
70902;BME280;58548;47.210;8.618;2023-06-22T06:41:17;94118.34;;;33.22;33.68
70902;BME280;58548;47.210;8.618;2023-06-22T06:43:43;94095.97;;;33.13;33.45
70902;BME280;58548;47.210;8.618;2023-06-22T06:46:11;94039.31;;;32.83;33.87
70902;BME280;58548;47.210;8.618;2023-06-22T06:48:39;94115.06;;;33.50;33.21
70902;BME280;58548;47.210;8.618;2023-06-22T06:51:07;94015.69;;;33.05;33.76
70902;BME280;58548;47.210;8.618;2023-06-22T06:53:37;94124.16;;;33.92;33.15
70902;BME280;58548;47.210;8.618;2023-06-22T06:56:04;94042.22;;;33.58;32.88
70902;BME280;58548;47.210;8.618;2023-06-22T06:58:33;94102.84;;;34.15;33.00
70902;BME280;58548;47.210;8.618;2023-06-22T07:00:59;94060.94;;;34.12;32.14
70902;BME280;58548;47.210;8.618;2023-06-22T07:03:24;94045.44;;;34.38;31.40
70902;BME280;58548;47.210;8.618;2023-06-22T07:05:53;94117.72;;;35.12;31.33
70902;BME280;58548;47.210;8.618;2023-06-22T07:08:19;94071.47;;;35.08;30.21
70902;BME280;58548;47.210;8.618;2023-06-22T07:10:45;94147.16;;;35.70;30.26
70902;BME280;58548;47.210;8.618;2023-06-22T07:13:10;94154.44;;;35.82;30.07
70902;BME280;58548;47.210;8.618;2023-06-22T07:15:37;94098.38;;;35.58;29.98
70902;BME280;58548;47.210;8.618;2023-06-22T07:18:10;94136.06;;;35.91;29.16
70902;BME280;58548;47.210;8.618;2023-06-22T07:20:36;94217.91;;;36.18;29.04
70902;BME280;58548;47.210;8.618;2023-06-22T07:23:04;94181.84;;;35.32;28.59
70902;BME280;58548;47.210;8.618;2023-06-22T07:25:30;94184.69;;;34.95;28.79
70902;BME280;58548;47.210;8.618;2023-06-22T07:27:59;94132.09;;;34.47;29.15
70902;BME280;58548;47.210;8.618;2023-06-22T07:30:25;94259.06;;;34.94;29.44
70902;BME280;58548;47.210;8.618;2023-06-22T07:32:54;94162.53;;;33.94;30.09
70902;BME280;58548;47.210;8.618;2023-06-22T07:35:22;94253.78;;;34.15;30.92
70902;BME280;58548;47.210;8.618;2023-06-22T07:37:48;94281.06;;;33.97;31.26
70902;BME280;58548;47.210;8.618;2023-06-22T07:40:16;94261.09;;;33.68;31.80
70902;BME280;58548;47.210;8.618;2023-06-22T07:42:42;94240.66;;;33.37;31.83
70902;BME280;58548;47.210;8.618;2023-06-22T07:45:10;94280.13;;;33.38;32.69
70902;BME280;58548;47.210;8.618;2023-06-22T07:47:37;94293.81;;;33.33;32.70
70902;BME280;58548;47.210;8.618;2023-06-22T07:50:03;94279.75;;;33.18;33.56
70902;BME280;58548;47.210;8.618;2023-06-22T07:52:32;94285.38;;;33.13;33.58
70902;BME280;58548;47.210;8.618;2023-06-22T07:55:00;94272.84;;;33.08;33.28
70902;BME280;58548;47.210;8.618;2023-06-22T07:57:26;94162.97;;;32.44;34.40
70902;BME280;58548;47.210;8.618;2023-06-22T08:00:08;94291.66;;;33.47;34.06
70902;BME280;58548;47.210;8.618;2023-06-22T08:02:43;94294.47;;;33.72;33.30
70902;BME280;58548;47.210;8.618;2023-06-22T08:05:10;94190.47;;;33.18;32.85
70902;BME280;58548;47.210;8.618;2023-06-22T08:07:37;94198.38;;;33.45;31.81
70902;BME280;58548;47.210;8.618;2023-06-22T08:10:09;94198.38;;;33.78;32.39
70902;BME280;58548;47.210;8.618;2023-06-22T08:12:38;94291.81;;;34.77;31.75
70902;BME280;58548;47.210;8.618;2023-06-22T08:15:04;94253.97;;;35.05;31.41
70902;BME280;58548;47.210;8.618;2023-06-22T08:17:31;94204.16;;;35.26;30.10
70902;BME280;58548;47.210;8.618;2023-06-22T08:19:57;94272.16;;;36.31;28.92
70902;BME280;58548;47.210;8.618;2023-06-22T08:22:23;94280.00;;;36.80;28.71
70902;BME280;58548;47.210;8.618;2023-06-22T08:24:48;94276.13;;;37.33;27.72
70902;BME280;58548;47.210;8.618;2023-06-22T08:27:17;94274.88;;;37.86;27.23
70902;BME280;58548;47.210;8.618;2023-06-22T08:29:46;94272.63;;;38.35;25.93
70902;BME280;58548;47.210;8.618;2023-06-22T08:32:15;94273.50;;;38.85;25.67
70902;BME280;58548;47.210;8.618;2023-06-22T08:34:43;94182.91;;;38.76;24.91
70902;BME280;58548;47.210;8.618;2023-06-22T08:37:11;94263.75;;;39.72;24.50
70902;BME280;58548;47.210;8.618;2023-06-22T08:39:39;94267.72;;;40.13;23.49
70902;BME280;58548;47.210;8.618;2023-06-22T08:42:08;94245.59;;;40.25;21.99
70902;BME280;58548;47.210;8.618;2023-06-22T08:44:39;94238.81;;;40.57;22.58
70902;BME280;58548;47.210;8.618;2023-06-22T08:47:08;94254.78;;;40.99;22.04
70902;BME280;58548;47.210;8.618;2023-06-22T08:49:36;94239.72;;;41.35;21.29
70902;BME280;58548;47.210;8.618;2023-06-22T08:52:02;94248.50;;;41.66;20.70
70902;BME280;58548;47.210;8.618;2023-06-22T08:54:28;94257.91;;;41.79;20.40
70902;BME280;58548;47.210;8.618;2023-06-22T08:56:53;94242.66;;;41.82;19.87
70902;BME280;58548;47.210;8.618;2023-06-22T08:59:21;94238.75;;;41.86;19.69
70902;BME280;58548;47.210;8.618;2023-06-22T09:01:49;94177.50;;;41.35;19.83
70902;BME280;58548;47.210;8.618;2023-06-22T09:04:18;94160.22;;;41.17;19.49
70902;BME280;58548;47.210;8.618;2023-06-22T09:06:46;94160.50;;;41.04;19.59
70902;BME280;58548;47.210;8.618;2023-06-22T09:09:16;94243.34;;;41.53;18.93
70902;BME280;58548;47.210;8.618;2023-06-22T09:11:42;94193.53;;;41.37;19.17
70902;BME280;58548;47.210;8.618;2023-06-22T09:14:09;94239.47;;;41.65;20.93
70902;BME280;58548;47.210;8.618;2023-06-22T09:16:35;94228.91;;;41.64;20.98
70902;BME280;58548;47.210;8.618;2023-06-22T09:19:01;94145.28;;;41.07;21.14
70902;BME280;58548;47.210;8.618;2023-06-22T09:21:29;94226.16;;;41.64;21.52
70902;BME280;58548;47.210;8.618;2023-06-22T09:23:57;94171.59;;;41.26;21.59
70902;BME280;58548;47.210;8.618;2023-06-22T09:26:23;94217.06;;;41.45;21.86
70902;BME280;58548;47.210;8.618;2023-06-22T09:28:51;94134.66;;;40.94;21.85
70902;BME280;58548;47.210;8.618;2023-06-22T09:31:19;94141.34;;;41.00;22.10
70902;BME280;58548;47.210;8.618;2023-06-22T09:33:54;94202.59;;;41.48;21.96
70902;BME280;58548;47.210;8.618;2023-06-22T09:36:21;94086.47;;;40.75;21.10
70902;BME280;58548;47.210;8.618;2023-06-22T09:38:48;94119.03;;;41.02;21.85
70902;BME280;58548;47.210;8.618;2023-06-22T09:41:22;94121.06;;;41.16;21.37
70902;BME280;58548;47.210;8.618;2023-06-22T09:43:50;94111.63;;;41.06;21.48
70902;BME280;58548;47.210;8.618;2023-06-22T09:46:19;94092.84;;;41.05;21.33
70902;BME280;58548;47.210;8.618;2023-06-22T09:48:47;94118.38;;;41.30;21.25
70902;BME280;58548;47.210;8.618;2023-06-22T09:51:15;94147.44;;;41.60;22.00
70902;BME280;58548;47.210;8.618;2023-06-22T09:53:41;94163.53;;;41.77;21.27
70902;BME280;58548;47.210;8.618;2023-06-22T09:56:09;94088.19;;;41.16;21.37
70902;BME280;58548;47.210;8.618;2023-06-22T09:58:43;94134.41;;;41.25;21.71
70902;BME280;58548;47.210;8.618;2023-06-22T10:01:11;94037.75;;;40.32;21.60
70902;BME280;58548;47.210;8.618;2023-06-22T10:03:40;94140.47;;;40.89;21.74
70902;BME280;58548;47.210;8.618;2023-06-22T10:06:09;94141.59;;;40.74;21.29
70902;BME280;58548;47.210;8.618;2023-06-22T10:08:37;94150.97;;;40.20;22.34
70902;BME280;58548;47.210;8.618;2023-06-22T10:11:06;94149.19;;;39.98;22.21
70902;BME280;58548;47.210;8.618;2023-06-22T10:13:34;94069.50;;;39.50;23.31
70902;BME280;58548;47.210;8.618;2023-06-22T10:16:02;94135.81;;;39.82;23.50
70902;BME280;58548;47.210;8.618;2023-06-22T10:18:30;94058.66;;;39.20;23.77
70902;BME280;58548;47.210;8.618;2023-06-22T10:20:56;94082.78;;;39.14;24.03
70902;BME280;58548;47.210;8.618;2023-06-22T10:23:22;94111.66;;;39.15;24.37
70902;BME280;58548;47.210;8.618;2023-06-22T10:25:48;94137.34;;;39.11;24.77
70902;BME280;58548;47.210;8.618;2023-06-22T10:28:14;94049.53;;;38.17;25.20
70902;BME280;58548;47.210;8.618;2023-06-22T10:30:42;93970.28;;;37.49;25.47
70902;BME280;58548;47.210;8.618;2023-06-22T10:33:13;94046.28;;;37.58;25.80
70902;BME280;58548;47.210;8.618;2023-06-22T10:35:44;94036.88;;;37.55;26.05
70902;BME280;58548;47.210;8.618;2023-06-22T10:38:14;94117.06;;;38.00;26.11
70902;BME280;58548;47.210;8.618;2023-06-22T10:40:40;94064.38;;;37.46;26.51
70902;BME280;58548;47.210;8.618;2023-06-22T10:43:08;94084.19;;;37.66;26.61
70902;BME280;58548;47.210;8.618;2023-06-22T10:45:37;94103.31;;;37.47;27.05
70902;BME280;58548;47.210;8.618;2023-06-22T10:48:05;94138.25;;;37.64;27.37
70902;BME280;58548;47.210;8.618;2023-06-22T10:50:32;94087.50;;;37.36;27.20
70902;BME280;58548;47.210;8.618;2023-06-22T10:53:00;94068.75;;;37.31;27.68
70902;BME280;58548;47.210;8.618;2023-06-22T10:55:26;94103.13;;;37.59;27.56
70902;BME280;58548;47.210;8.618;2023-06-22T10:57:54;94079.34;;;37.36;27.67
70902;BME280;58548;47.210;8.618;2023-06-22T11:00:20;94065.19;;;37.27;27.54
70902;BME280;58548;47.210;8.618;2023-06-22T11:02:48;94050.63;;;37.19;27.99
70902;BME280;58548;47.210;8.618;2023-06-22T11:05:14;94060.09;;;37.25;27.87
70902;BME280;58548;47.210;8.618;2023-06-22T11:07:43;94047.28;;;37.26;27.60
70902;BME280;58548;47.210;8.618;2023-06-22T11:10:13;94139.19;;;37.76;27.54
70902;BME280;58548;47.210;8.618;2023-06-22T11:12:41;94142.16;;;37.67;27.76
70902;BME280;58548;47.210;8.618;2023-06-22T11:15:10;94053.25;;;37.12;27.57
70902;BME280;58548;47.210;8.618;2023-06-22T11:17:38;94117.88;;;37.58;27.04
70902;BME280;58548;47.210;8.618;2023-06-22T11:20:06;94156.66;;;37.94;26.87
70902;BME280;58548;47.210;8.618;2023-06-22T11:22:38;94063.16;;;37.44;27.14
70902;BME280;58548;47.210;8.618;2023-06-22T11:25:07;94050.09;;;37.53;26.42
70902;BME280;58548;47.210;8.618;2023-06-22T11:27:37;94070.72;;;37.77;26.29
70902;BME280;58548;47.210;8.618;2023-06-22T11:30:03;94095.38;;;38.08;26.23
70902;BME280;58548;47.210;8.618;2023-06-22T11:32:29;94103.50;;;38.31;26.19
70902;BME280;58548;47.210;8.618;2023-06-22T11:34:58;94139.91;;;38.69;25.78
70902;BME280;58548;47.210;8.618;2023-06-22T11:37:26;94141.75;;;38.88;25.61
70902;BME280;58548;47.210;8.618;2023-06-22T11:39:52;94137.97;;;38.97;25.13
70902;BME280;58548;47.210;8.618;2023-06-22T11:42:22;94086.97;;;38.74;25.05
70902;BME280;58548;47.210;8.618;2023-06-22T11:44:49;94173.66;;;39.45;25.01
70902;BME280;58548;47.210;8.618;2023-06-22T11:47:20;94095.19;;;39.08;25.13
70902;BME280;58548;47.210;8.618;2023-06-22T11:49:48;94115.13;;;39.46;24.27
70902;BME280;58548;47.210;8.618;2023-06-22T11:52:14;94129.34;;;39.63;23.25
70902;BME280;58548;47.210;8.618;2023-06-22T11:54:40;94118.41;;;39.63;22.55
70902;BME280;58548;47.210;8.618;2023-06-22T11:57:06;94105.56;;;39.67;21.89
70902;BME280;58548;47.210;8.618;2023-06-22T11:59:32;94105.34;;;39.83;21.75
70902;BME280;58548;47.210;8.618;2023-06-22T12:01:58;94117.19;;;39.98;22.38
70902;BME280;58548;47.210;8.618;2023-06-22T12:04:26;94171.09;;;40.46;22.88
70902;BME280;58548;47.210;8.618;2023-06-22T12:06:52;94111.47;;;40.18;22.34
70902;BME280;58548;47.210;8.618;2023-06-22T12:09:18;94189.34;;;40.80;21.97
70902;BME280;58548;47.210;8.618;2023-06-22T12:11:46;94194.47;;;40.85;22.14
70902;BME280;58548;47.210;8.618;2023-06-22T12:14:14;94194.47;;;40.89;21.86
70902;BME280;58548;47.210;8.618;2023-06-22T12:16:42;94182.00;;;40.95;22.42
70902;BME280;58548;47.210;8.618;2023-06-22T12:19:12;94088.28;;;40.53;22.70
70902;BME280;58548;47.210;8.618;2023-06-22T12:21:42;94097.38;;;40.64;22.52
70902;BME280;58548;47.210;8.618;2023-06-22T12:24:11;94088.41;;;40.67;21.86
70902;BME280;58548;47.210;8.618;2023-06-22T12:26:37;94110.81;;;40.98;21.66
70902;BME280;58548;47.210;8.618;2023-06-22T12:29:05;94173.69;;;41.62;21.22
70902;BME280;58548;47.210;8.618;2023-06-22T12:31:33;94097.63;;;41.22;21.24
70902;BME280;58548;47.210;8.618;2023-06-22T12:34:02;94177.66;;;41.89;21.03
70902;BME280;58548;47.210;8.618;2023-06-22T12:36:30;94144.75;;;41.97;20.58
70902;BME280;58548;47.210;8.618;2023-06-22T12:38:58;94144.00;;;42.22;19.25
70902;BME280;58548;47.210;8.618;2023-06-22T12:41:28;94180.03;;;42.71;18.61
70902;BME280;58548;47.210;8.618;2023-06-22T12:43:57;94083.22;;;42.41;18.47
70902;BME280;58548;47.210;8.618;2023-06-22T12:46:25;94141.50;;;43.03;18.46
70902;BME280;58548;47.210;8.618;2023-06-22T12:48:51;94156.34;;;43.31;17.28
70902;BME280;58548;47.210;8.618;2023-06-22T12:51:22;94157.06;;;43.46;18.04
70902;BME280;58548;47.210;8.618;2023-06-22T12:53:51;94154.66;;;43.59;17.69
70902;BME280;58548;47.210;8.618;2023-06-22T12:56:17;94142.81;;;43.69;17.02
70902;BME280;58548;47.210;8.618;2023-06-22T12:58:43;94120.00;;;43.73;16.71
70902;BME280;58548;47.210;8.618;2023-06-22T13:01:11;94128.16;;;43.87;16.53
70902;BME280;58548;47.210;8.618;2023-06-22T13:03:37;94071.47;;;43.44;16.68
70902;BME280;58548;47.210;8.618;2023-06-22T13:06:03;94160.66;;;44.07;16.33
70902;BME280;58548;47.210;8.618;2023-06-22T13:08:29;94139.88;;;43.98;17.03
70902;BME280;58548;47.210;8.618;2023-06-22T13:10:55;94154.63;;;44.23;16.75
70902;BME280;58548;47.210;8.618;2023-06-22T13:13:28;94091.66;;;43.79;16.31